createdAt,value
2022-08-16T00:03:07.744Z,23.44
2022-08-16T00:09:15.784Z,23.35
2022-08-16T00:15:51.432Z,23.42
2022-08-16T00:21:57.086Z,23.62
2022-08-16T00:28:04.772Z,23.58
2022-08-16T00:34:08.433Z,23.50
2022-08-16T00:40:33.684Z,23.59
2022-08-16T00:46:54.050Z,23.56
2022-08-16T00:53:08.672Z,23.28
2022-08-16T00:59:15.265Z,23.55
2022-08-16T01:05:19.129Z,23.46
2022-08-16T01:11:27.295Z,23.59
2022-08-16T01:17:36.578Z,23.21
2022-08-16T01:24:51.866Z,23.58
2022-08-16T01:30:49.955Z,23.42
2022-08-16T01:37:01.461Z,23.49
2022-08-16T01:43:05.753Z,23.52
2022-08-16T01:49:12.803Z,23.55
2022-08-16T01:55:18.474Z,23.34
2022-08-16T02:01:20.584Z,23.40
2022-08-16T02:07:23.780Z,23.49
2022-08-16T02:13:27.738Z,23.50
2022-08-16T02:19:59.454Z,23.45
2022-08-16T02:25:59.529Z,23.48
2022-08-16T02:32:03.380Z,23.37
2022-08-16T02:38:24.097Z,23.44
2022-08-16T02:44:26.964Z,23.41
2022-08-16T02:50:54.696Z,23.43
2022-08-16T02:56:52.072Z,23.46
2022-08-16T03:02:56.507Z,23.05
2022-08-16T03:08:58.556Z,23.48
2022-08-16T03:15:01.804Z,23.37
2022-08-16T03:21:03.869Z,23.29
2022-08-16T03:27:06.999Z,23.34
2022-08-16T03:33:11.640Z,23.44
2022-08-16T03:39:15.126Z,23.43
2022-08-16T03:45:27.271Z,23.43
2022-08-16T03:51:33.093Z,23.30
2022-08-16T03:57:36.359Z,23.28
2022-08-16T04:03:38.377Z,23.01
2022-08-16T04:09:40.207Z,22.92
2022-08-16T04:15:42.169Z,22.31
2022-08-16T04:21:45.952Z,22.32
2022-08-16T04:27:54.256Z,22.16
2022-08-16T04:33:59.540Z,22.22
2022-08-16T04:40:01.304Z,22.13
2022-08-16T04:46:32.015Z,22.34
2022-08-16T04:52:34.595Z,22.87
2022-08-16T04:58:44.009Z,22.92
2022-08-16T05:04:47.973Z,22.92
2022-08-16T05:10:50.060Z,23.14
2022-08-16T05:16:52.109Z,22.62
2022-08-16T05:22:54.228Z,23.01
2022-08-16T05:28:58.719Z,23.25
2022-08-16T05:35:01.164Z,23.12
2022-08-16T05:41:03.904Z,22.83
2022-08-16T05:47:05.826Z,23.21
2022-08-16T05:53:10.075Z,22.99
2022-08-16T05:59:13.396Z,23.26
2022-08-16T06:05:15.844Z,23.27
2022-08-16T06:11:17.835Z,23.15
2022-08-16T06:17:21.537Z,23.18
2022-08-16T06:23:24.398Z,23.36
2022-08-16T06:29:26.510Z,23.14
2022-08-16T06:35:40.279Z,23.26
2022-08-16T06:41:42.320Z,23.29
2022-08-16T06:47:54.110Z,22.98
2022-08-16T06:53:58.289Z,23.07
2022-08-16T07:00:00.125Z,22.99
2022-08-16T07:06:04.805Z,22.98
2022-08-16T07:12:07.223Z,23.30
2022-08-16T07:18:11.338Z,23.11
2022-08-16T07:24:30.495Z,23.27
2022-08-16T07:30:39.655Z,23.50
2022-08-16T07:36:57.880Z,23.34
2022-08-16T07:43:00.811Z,23.42
2022-08-16T07:49:04.965Z,23.49
2022-08-16T07:55:15.318Z,23.30
2022-08-16T08:01:17.431Z,23.50
2022-08-16T08:07:19.384Z,23.18
2022-08-16T08:13:41.822Z,23.58
2022-08-16T08:19:45.853Z,23.45
2022-08-16T08:25:56.022Z,23.48
2022-08-16T08:31:57.890Z,23.48
2022-08-16T08:38:00.199Z,23.32
2022-08-16T08:44:29.464Z,22.90
2022-08-16T08:50:32.249Z,23.49
2022-08-16T08:56:45.479Z,23.62
2022-08-16T09:02:52.260Z,23.59
2022-08-16T09:08:54.739Z,23.65
2022-08-16T09:15:00.573Z,23.50
2022-08-16T09:21:02.429Z,23.68
2022-08-16T09:27:05.571Z,23.67
2022-08-16T09:33:07.708Z,23.65
2022-08-16T09:39:16.341Z,23.18
2022-08-16T09:45:18.757Z,22.77
2022-08-16T09:51:34.354Z,23.19
2022-08-16T09:57:41.755Z,22.75
2022-08-16T10:04:01.924Z,23.11
2022-08-16T10:10:09.787Z,23.50
2022-08-16T10:22:17.268Z,23.37
2022-08-16T10:28:28.529Z,23.52
2022-08-16T10:34:32.763Z,23.58
2022-08-16T10:40:35.695Z,23.47
2022-08-16T10:46:41.984Z,23.42
2022-08-16T10:52:44.762Z,23.92
2022-08-16T10:58:51.765Z,23.44
2022-08-16T11:05:10.694Z,23.91
2022-08-16T11:11:19.543Z,23.93
2022-08-16T11:17:22.230Z,23.73
2022-08-16T11:23:25.789Z,23.85
2022-08-16T11:29:27.636Z,23.81
2022-08-16T11:41:54.182Z,23.71
2022-08-16T11:47:56.028Z,24.05
2022-08-16T11:53:58.439Z,24.05
2022-08-16T12:00:00.852Z,23.89
2022-08-16T12:06:25.311Z,24.05
2022-08-16T12:12:32.873Z,23.98
2022-08-16T12:18:37.791Z,24.09
2022-08-16T12:24:41.634Z,23.93
2022-08-16T12:30:46.928Z,24.06
2022-08-16T12:36:48.847Z,23.86
2022-08-16T12:42:53.552Z,24.11
2022-08-16T12:48:58.272Z,24.03
2022-08-16T12:55:01.213Z,23.86
2022-08-16T13:01:03.997Z,23.88
2022-08-16T13:07:08.566Z,23.34
2022-08-16T13:13:11.017Z,23.69
2022-08-16T13:19:13.113Z,23.89
2022-08-16T13:25:21.246Z,24.15
2022-08-16T13:31:23.982Z,24.11
2022-08-16T13:37:25.983Z,23.89
2022-08-16T13:43:29.048Z,24.10
2022-08-16T13:49:35.591Z,24.17
2022-08-16T13:55:37.525Z,23.90
2022-08-16T14:01:43.232Z,24.05
2022-08-16T14:07:52.571Z,24.08
2022-08-16T14:13:54.901Z,23.71
2022-08-16T14:19:59.973Z,24.08
2022-08-16T14:26:02.507Z,24.04
2022-08-16T14:32:07.789Z,23.90
2022-08-16T14:38:11.272Z,23.90
2022-08-16T14:44:19.897Z,23.97
2022-08-16T14:50:25.630Z,24.05
2022-08-16T14:56:38.429Z,24.01
2022-08-16T15:02:45.273Z,24.23
2022-08-16T15:08:48.017Z,24.11
2022-08-16T15:14:52.292Z,24.13
2022-08-16T15:20:54.614Z,24.12
2022-08-16T15:26:56.958Z,23.81
2022-08-16T15:33:05.492Z,24.09
2022-08-16T15:39:25.611Z,24.32
2022-08-16T15:45:48.276Z,24.26
2022-08-16T15:51:57.763Z,24.33
2022-08-16T15:58:01.128Z,24.30
2022-08-16T16:04:25.848Z,24.18
2022-08-16T16:10:29.316Z,24.06
2022-08-16T16:16:31.784Z,24.03
2022-08-16T16:22:34.257Z,24.12
2022-08-16T16:29:05.073Z,24.23
2022-08-16T16:34:59.009Z,24.19
2022-08-16T16:41:09.418Z,23.91
2022-08-16T16:47:11.680Z,24.17
2022-08-16T16:53:17.143Z,24.12
2022-08-16T16:59:20.171Z,23.62
2022-08-16T17:05:23.201Z,23.97
2022-08-16T17:11:26.032Z,23.95
2022-08-16T17:17:36.131Z,23.79
2022-08-16T17:23:58.052Z,23.98
2022-08-16T17:30:01.259Z,23.89
2022-08-16T17:36:03.581Z,23.90
2022-08-16T17:42:15.749Z,23.63
2022-08-16T17:48:19.085Z,23.61
2022-08-16T17:54:30.149Z,23.72
2022-08-16T18:00:32.863Z,23.84
2022-08-16T18:06:34.667Z,23.77
2022-08-16T18:12:44.759Z,23.78
2022-08-16T18:18:53.359Z,23.85
2022-08-16T18:24:56.319Z,23.72
2022-08-16T18:31:01.127Z,23.80
2022-08-16T18:37:05.809Z,23.38
2022-08-16T18:43:14.092Z,23.43
2022-08-16T18:49:17.849Z,23.77
2022-08-16T18:55:21.411Z,23.72
2022-08-16T19:01:24.115Z,23.75
2022-08-16T19:07:30.716Z,23.93
2022-08-16T19:13:34.570Z,23.50
2022-08-16T19:19:36.286Z,23.80
2022-08-16T19:25:47.566Z,23.79
2022-08-16T19:31:51.231Z,23.92
2022-08-16T19:37:54.013Z,23.78
2022-08-16T19:43:55.797Z,23.49
2022-08-16T19:49:58.071Z,23.91
2022-08-16T19:55:59.953Z,23.71
2022-08-16T20:02:02.408Z,23.64
2022-08-16T20:08:04.755Z,23.64
2022-08-16T20:14:06.604Z,23.43
2022-08-16T20:20:08.778Z,23.81
2022-08-16T20:26:13.811Z,23.84
2022-08-16T20:32:23.965Z,23.85
2022-08-16T20:38:27.458Z,23.84
2022-08-16T20:44:29.333Z,23.61
2022-08-16T20:50:32.010Z,23.77
2022-08-16T20:56:33.710Z,23.61
2022-08-16T21:02:35.422Z,23.55
2022-08-16T21:08:51.989Z,23.76
2022-08-16T21:14:55.563Z,23.82
2022-08-16T21:20:57.344Z,23.73
2022-08-16T21:26:59.073Z,23.76
2022-08-16T21:33:10.081Z,23.79
2022-08-16T21:39:11.851Z,23.42
2022-08-16T21:45:14.534Z,23.48
2022-08-16T21:51:16.290Z,23.58
2022-08-16T21:57:22.801Z,23.30
2022-08-16T22:03:25.370Z,23.17
2022-08-16T22:09:27.261Z,23.51
2022-08-16T22:15:28.968Z,23.49
2022-08-16T22:21:32.004Z,23.22
2022-08-16T22:27:33.765Z,23.47
2022-08-16T22:33:35.512Z,23.38
2022-08-16T22:39:37.322Z,23.43
2022-08-16T22:45:39.385Z,23.40
2022-08-16T22:51:42.362Z,23.21
2022-08-16T22:57:44.494Z,23.23
2022-08-16T23:03:46.274Z,23.22
2022-08-16T23:09:48.038Z,23.28
2022-08-16T23:15:57.087Z,23.27
2022-08-16T23:22:00.820Z,23.36
2022-08-16T23:28:03.577Z,23.14
2022-08-16T23:34:05.349Z,23.34
2022-08-16T23:40:11.737Z,23.30
2022-08-16T23:46:17.092Z,23.37
2022-08-16T23:52:19.212Z,23.37
2022-08-16T23:58:47.013Z,23.37
